createdAt,value
2023-03-06T00:01:09.725Z,2.62
2023-03-06T00:04:11.978Z,2.85
2023-03-06T00:07:14.175Z,2.90
2023-03-06T00:10:19.610Z,2.42
2023-03-06T00:13:23.576Z,2.40
2023-03-06T00:16:25.819Z,2.40
2023-03-06T00:19:28.156Z,2.97
2023-03-06T00:22:30.353Z,3.12
2023-03-06T00:25:32.595Z,2.65
2023-03-06T00:28:35.578Z,2.85
2023-03-06T00:31:37.831Z,2.42
2023-03-06T00:34:40.035Z,2.95
2023-03-06T00:37:42.233Z,2.10
2023-03-06T00:40:44.491Z,2.10
2023-03-06T00:43:46.697Z,2.70
2023-03-06T00:46:48.843Z,2.72
2023-03-06T00:49:51.025Z,3.05
2023-03-06T00:52:53.197Z,4.57
2023-03-06T00:55:55.400Z,3.20
2023-03-06T00:58:57.587Z,3.00
2023-03-06T01:01:59.821Z,2.62
2023-03-06T01:05:02.564Z,2.65
2023-03-06T01:08:05.595Z,3.05
2023-03-06T01:11:07.760Z,3.08
2023-03-06T01:14:10.154Z,3.70
2023-03-06T01:17:12.357Z,2.55
2023-03-06T01:20:16.956Z,3.90
2023-03-06T01:23:19.127Z,3.20
2023-03-06T01:26:21.266Z,3.10
2023-03-06T01:29:23.540Z,2.85
2023-03-06T01:32:25.714Z,3.37
2023-03-06T01:35:27.927Z,2.80
2023-03-06T01:38:30.112Z,3.22
2023-03-06T01:41:32.954Z,2.62
2023-03-06T01:44:35.152Z,2.87
2023-03-06T01:47:37.342Z,3.03
2023-03-06T01:50:39.511Z,3.08
2023-03-06T01:53:43.336Z,3.75
2023-03-06T01:56:46.958Z,2.37
2023-03-06T01:59:53.155Z,3.03
2023-03-06T02:02:58.880Z,2.72
2023-03-06T02:06:01.481Z,2.00
2023-03-06T02:09:04.841Z,2.45
2023-03-06T02:12:11.207Z,3.37
2023-03-06T02:15:16.151Z,2.53
2023-03-06T02:18:18.309Z,3.25
2023-03-06T02:21:24.876Z,2.60
2023-03-06T02:24:39.504Z,3.62
2023-03-06T02:27:41.773Z,2.65
2023-03-06T02:30:46.276Z,4.03
2023-03-06T02:34:04.946Z,3.58
2023-03-06T02:37:10.767Z,3.95
2023-03-06T02:40:14.844Z,3.45
2023-03-06T02:43:20.664Z,3.58
2023-03-06T02:46:22.905Z,3.50
2023-03-06T02:49:26.501Z,4.18
2023-03-06T02:52:28.914Z,3.50
2023-03-06T02:55:31.546Z,3.33
2023-03-06T02:58:33.814Z,3.50
2023-03-06T03:01:36.073Z,3.17
2023-03-06T03:04:38.365Z,3.70
2023-03-06T03:07:40.556Z,2.75
2023-03-06T03:10:42.755Z,2.70
2023-03-06T03:13:44.924Z,3.35
2023-03-06T03:16:47.146Z,2.42
2023-03-06T03:19:49.476Z,2.50
2023-03-06T03:22:54.072Z,3.03
2023-03-06T03:25:56.230Z,2.25
2023-03-06T03:28:58.451Z,1.92
2023-03-06T03:32:00.719Z,3.40
2023-03-06T03:35:03.779Z,3.85
2023-03-06T03:38:05.996Z,2.65
2023-03-06T03:41:08.174Z,2.22
2023-03-06T03:44:10.726Z,2.40
2023-03-06T03:47:12.926Z,3.03
2023-03-06T03:50:15.145Z,2.67
2023-03-06T03:53:17.289Z,2.45
2023-03-06T03:56:19.484Z,1.98
2023-03-06T03:59:21.709Z,3.33
2023-03-06T04:02:24.043Z,2.70
2023-03-06T04:05:26.261Z,2.33
2023-03-06T04:08:28.958Z,2.35
2023-03-06T04:11:31.333Z,2.60
2023-03-06T04:14:33.514Z,3.22
2023-03-06T04:17:35.899Z,3.08
2023-03-06T04:20:38.075Z,3.50
2023-03-06T04:23:40.389Z,3.10
2023-03-06T04:26:42.533Z,2.60
2023-03-06T04:29:44.758Z,3.83
2023-03-06T04:32:46.943Z,3.65
2023-03-06T04:35:49.202Z,3.97
2023-03-06T04:38:51.458Z,7.40
2023-03-06T04:41:53.623Z,6.78
2023-03-06T04:44:55.876Z,8.63
2023-03-06T04:47:58.805Z,8.02
2023-03-06T04:51:00.976Z,9.27
2023-03-06T04:54:04.110Z,5.62
2023-03-06T04:57:06.296Z,7.97
2023-03-06T05:00:31.724Z,9.80
2023-03-06T05:03:34.050Z,8.43
2023-03-06T05:06:36.219Z,8.18
2023-03-06T05:09:39.205Z,7.32
2023-03-06T05:12:41.769Z,6.70
2023-03-06T05:15:43.911Z,6.22
2023-03-06T05:18:46.344Z,4.30
2023-03-06T05:21:48.722Z,4.05
2023-03-06T05:24:51.008Z,4.40
2023-03-06T05:27:53.305Z,6.55
2023-03-06T05:30:55.653Z,5.72
2023-03-06T05:34:01.367Z,5.03
2023-03-06T05:37:03.581Z,5.60
2023-03-06T05:40:09.501Z,4.37
2023-03-06T05:43:12.297Z,4.60
2023-03-06T05:46:14.505Z,4.80
2023-03-06T05:49:17.146Z,4.12
2023-03-06T05:52:19.382Z,4.20
2023-03-06T05:55:22.587Z,4.53
2023-03-06T05:58:24.810Z,4.37
2023-03-06T06:01:28.489Z,4.78
2023-03-06T06:04:30.692Z,4.05
2023-03-06T06:07:32.892Z,3.55
2023-03-06T06:10:35.058Z,3.17
2023-03-06T06:13:38.537Z,3.67
2023-03-06T06:16:40.911Z,3.72
2023-03-06T06:19:43.121Z,3.08
2023-03-06T06:22:45.274Z,3.22
2023-03-06T06:25:47.501Z,3.83
2023-03-06T06:28:49.792Z,4.55
2023-03-06T06:31:52.858Z,4.45
2023-03-06T06:34:55.121Z,6.32
2023-03-06T06:37:57.285Z,5.72
2023-03-06T06:41:33.011Z,6.00
2023-03-06T06:44:21.638Z,33.05
2023-03-06T06:47:25.379Z,12.65
2023-03-06T06:50:27.877Z,13.80
2023-03-06T06:53:30.548Z,10.68
2023-03-06T06:56:32.993Z,7.60
2023-03-06T06:59:35.248Z,8.38
2023-03-06T07:02:37.460Z,5.70
2023-03-06T07:05:39.682Z,4.50
2023-03-06T07:08:41.855Z,3.90
2023-03-06T07:11:44.071Z,4.62
2023-03-06T07:14:46.841Z,3.85
2023-03-06T07:17:50.267Z,5.05
2023-03-06T07:20:54.003Z,4.65
2023-03-06T07:23:57.575Z,3.72
2023-03-06T07:26:59.831Z,5.95
2023-03-06T07:30:02.239Z,4.90
2023-03-06T07:33:04.483Z,4.12
2023-03-06T07:36:12.186Z,4.50
2023-03-06T07:39:15.144Z,5.28
2023-03-06T07:42:17.374Z,5.45
2023-03-06T07:45:19.595Z,5.18
2023-03-06T07:48:21.781Z,4.75
2023-03-06T07:51:24.000Z,6.15
2023-03-06T07:54:26.180Z,6.18
2023-03-06T07:57:28.357Z,5.90
2023-03-06T08:00:30.544Z,5.95
2023-03-06T08:03:33.039Z,6.50
2023-03-06T08:06:35.273Z,6.30
2023-03-06T08:09:37.435Z,11.63
2023-03-06T08:12:39.638Z,6.75
2023-03-06T08:15:47.633Z,8.93
2023-03-06T08:18:50.106Z,7.22
2023-03-06T08:21:52.264Z,6.20
2023-03-06T08:24:56.326Z,4.87
2023-03-06T08:27:58.595Z,4.97
2023-03-06T08:31:09.428Z,5.40
2023-03-06T08:34:14.565Z,2.95
2023-03-06T08:37:16.886Z,3.55
2023-03-06T08:40:19.099Z,3.15
2023-03-06T08:43:21.271Z,2.47
2023-03-06T08:46:26.313Z,3.72
2023-03-06T08:49:28.461Z,4.03
2023-03-06T08:52:30.646Z,3.42
2023-03-06T08:55:36.617Z,4.53
2023-03-06T08:58:38.816Z,5.50
2023-03-06T09:01:41.217Z,3.47
2023-03-06T09:04:43.460Z,3.35
2023-03-06T09:07:45.841Z,3.97
2023-03-06T09:10:48.564Z,3.58
2023-03-06T09:13:51.167Z,4.35
2023-03-06T09:16:53.358Z,3.90
2023-03-06T09:19:55.565Z,3.72
2023-03-06T09:22:57.899Z,3.17
2023-03-06T09:26:01.222Z,3.50
2023-03-06T09:29:03.466Z,3.12
2023-03-06T09:32:06.149Z,3.80
2023-03-06T09:35:09.030Z,3.15
2023-03-06T09:38:11.192Z,3.00
2023-03-06T09:41:23.635Z,3.40
2023-03-06T09:44:28.743Z,2.92
2023-03-06T09:47:43.051Z,3.80
2023-03-06T09:50:51.590Z,3.28
2023-03-06T09:53:59.339Z,3.22
2023-03-06T09:57:01.502Z,2.97
2023-03-06T10:00:08.043Z,3.12
2023-03-06T10:03:38.430Z,3.47
2023-03-06T10:06:51.736Z,3.45
2023-03-06T10:09:59.371Z,2.62
2023-03-06T10:13:30.785Z,3.47
2023-03-06T10:16:33.652Z,5.18
2023-03-06T10:19:42.362Z,4.78
2023-03-06T10:23:05.381Z,4.50
2023-03-06T10:26:17.367Z,2.75
2023-03-06T10:30:02.037Z,4.20
2023-03-06T10:33:49.539Z,3.90
2023-03-06T10:36:51.728Z,11.52
2023-03-06T10:40:00.259Z,3.22
2023-03-06T10:43:11.488Z,3.92
2023-03-06T10:46:27.095Z,6.18
2023-03-06T10:49:36.855Z,3.95
2023-03-06T10:52:39.058Z,3.42
2023-03-06T10:55:41.425Z,3.90
2023-03-06T10:58:43.641Z,4.72
2023-03-06T11:01:51.320Z,5.35
2023-03-06T11:04:54.973Z,4.80
2023-03-06T11:08:01.963Z,4.70
2023-03-06T11:11:18.530Z,4.05
2023-03-06T11:14:27.490Z,5.05
2023-03-06T11:17:32.105Z,5.90
2023-03-06T11:20:51.446Z,3.42
2023-03-06T11:23:56.311Z,6.25
2023-03-06T11:27:00.133Z,4.75
2023-03-06T11:30:11.987Z,4.12
2023-03-06T11:33:24.501Z,4.55
2023-03-06T11:36:31.622Z,4.10
2023-03-06T11:39:50.304Z,4.22
2023-03-06T11:43:12.033Z,3.85
2023-03-06T11:46:23.375Z,4.53
2023-03-06T11:49:44.982Z,3.80
2023-03-06T11:53:07.425Z,4.10
2023-03-06T11:56:20.032Z,4.72
2023-03-06T11:59:37.161Z,4.32
2023-03-06T12:02:50.214Z,4.05
2023-03-06T12:06:05.515Z,5.10
2023-03-06T12:09:13.724Z,7.00
2023-03-06T12:12:40.427Z,4.95
2023-03-06T12:16:12.639Z,5.25
2023-03-06T12:19:33.369Z,4.53
2023-03-06T12:22:57.605Z,5.80
2023-03-06T12:26:12.497Z,6.60
2023-03-06T12:29:52.008Z,8.05
2023-03-06T12:33:25.322Z,11.95
2023-03-06T12:36:39.346Z,6.82
2023-03-06T12:40:06.358Z,6.47
2023-03-06T12:43:33.410Z,6.45
2023-03-06T12:46:54.400Z,6.40
2023-03-06T12:50:00.137Z,6.40
2023-03-06T12:53:05.707Z,16.85
2023-03-06T12:56:08.970Z,5.35
2023-03-06T12:59:35.445Z,4.55
2023-03-06T13:02:43.771Z,7.50
2023-03-06T13:06:24.771Z,8.25
2023-03-06T13:09:33.168Z,4.73
2023-03-06T13:12:56.017Z,4.18
2023-03-06T13:16:31.697Z,5.47
2023-03-06T13:19:33.954Z,4.82
2023-03-06T13:22:36.220Z,5.25
2023-03-06T13:25:48.167Z,4.80
2023-03-06T13:28:52.179Z,5.75
2023-03-06T13:31:54.281Z,6.18
2023-03-06T13:34:56.511Z,5.18
2023-03-06T13:37:59.662Z,7.57
2023-03-06T13:41:20.609Z,6.03
2023-03-06T13:44:25.647Z,4.50
2023-03-06T13:48:05.851Z,7.47
2023-03-06T13:51:24.376Z,5.85
2023-03-06T13:54:36.703Z,5.65
2023-03-06T13:57:38.772Z,6.60
2023-03-06T14:00:52.472Z,8.50
2023-03-06T14:04:09.955Z,5.68
2023-03-06T14:07:32.583Z,5.20
2023-03-06T14:10:35.969Z,7.60
2023-03-06T14:13:49.748Z,6.43
2023-03-06T14:16:53.600Z,7.32
2023-03-06T14:20:00.008Z,12.70
2023-03-06T14:23:14.490Z,5.35
2023-03-06T14:26:24.428Z,8.25
2023-03-06T14:29:28.340Z,10.95
2023-03-06T14:32:31.179Z,6.90
2023-03-06T14:35:34.461Z,7.12
2023-03-06T14:38:44.011Z,7.70
2023-03-06T14:41:46.452Z,4.95
2023-03-06T14:44:49.936Z,5.45
2023-03-06T14:47:53.083Z,7.57
2023-03-06T14:50:56.668Z,7.20
2023-03-06T14:54:01.775Z,6.53
2023-03-06T14:57:07.399Z,4.95
2023-03-06T15:00:17.348Z,7.97
2023-03-06T15:03:24.323Z,8.32
2023-03-06T15:06:40.042Z,8.75
2023-03-06T15:09:46.276Z,5.28
2023-03-06T15:12:48.574Z,7.12
2023-03-06T15:16:04.440Z,4.12
2023-03-06T15:19:20.932Z,4.62
2023-03-06T15:22:38.736Z,5.22
2023-03-06T15:25:41.186Z,5.72
2023-03-06T15:28:43.413Z,5.78
2023-03-06T15:31:46.096Z,6.20
2023-03-06T15:34:48.473Z,5.90
2023-03-06T15:37:51.295Z,13.45
2023-03-06T15:40:55.822Z,6.82
2023-03-06T15:43:58.926Z,5.82
2023-03-06T15:47:08.760Z,6.85
2023-03-06T15:50:25.990Z,8.45
2023-03-06T15:53:28.559Z,9.35
2023-03-06T15:56:34.241Z,5.80
2023-03-06T15:59:43.780Z,8.45
2023-03-06T16:02:47.102Z,11.48
2023-03-06T16:05:49.680Z,7.82
2023-03-06T16:08:52.502Z,9.48
2023-03-06T16:11:54.755Z,7.12
2023-03-06T16:14:57.354Z,9.80
2023-03-06T16:18:00.202Z,9.55
2023-03-06T16:21:02.495Z,7.15
2023-03-06T16:24:05.012Z,9.32
2023-03-06T16:27:07.271Z,5.78
2023-03-06T16:30:19.969Z,5.70
2023-03-06T16:33:22.331Z,8.57
2023-03-06T16:36:27.034Z,6.60
2023-03-06T16:39:29.496Z,7.93
2023-03-06T16:42:31.674Z,6.45
2023-03-06T16:45:39.058Z,7.70
2023-03-06T16:48:41.304Z,8.07
2023-03-06T16:51:44.156Z,14.95
2023-03-06T16:54:46.394Z,10.77
2023-03-06T16:57:48.902Z,12.05
2023-03-06T17:00:51.473Z,11.65
2023-03-06T17:03:53.882Z,9.75
2023-03-06T17:06:56.133Z,8.82
2023-03-06T17:09:58.394Z,5.40
2023-03-06T17:13:00.719Z,6.60
2023-03-06T17:16:03.272Z,5.78
2023-03-06T17:19:05.748Z,5.62
2023-03-06T17:22:07.895Z,5.68
2023-03-06T17:25:10.283Z,5.30
2023-03-06T17:28:13.272Z,5.45
2023-03-06T17:31:15.718Z,11.02
2023-03-06T17:34:18.135Z,13.85
2023-03-06T17:37:20.859Z,13.05
2023-03-06T17:40:23.404Z,9.57
2023-03-06T17:43:25.567Z,11.27
2023-03-06T17:46:28.254Z,13.60
2023-03-06T17:49:30.706Z,12.15
2023-03-06T17:52:33.731Z,8.48
2023-03-06T17:55:38.493Z,7.53
2023-03-06T17:58:41.496Z,9.55
2023-03-06T18:01:45.083Z,10.60
2023-03-06T18:04:47.436Z,10.68
2023-03-06T18:07:50.026Z,8.65
2023-03-06T18:10:52.419Z,11.60
2023-03-06T18:13:54.929Z,9.18
2023-03-06T18:16:57.452Z,8.30
2023-03-06T18:19:59.938Z,8.27
2023-03-06T18:23:03.788Z,8.25
2023-03-06T18:26:26.753Z,7.55
2023-03-06T18:29:29.252Z,7.37
2023-03-06T18:32:31.779Z,8.82
2023-03-06T18:35:34.837Z,8.02
2023-03-06T18:38:39.637Z,6.57
2023-03-06T18:41:41.871Z,11.82
2023-03-06T18:44:47.810Z,25.88
2023-03-06T18:47:50.261Z,11.82
2023-03-06T18:50:52.735Z,7.43
2023-03-06T18:53:59.490Z,7.40
2023-03-06T18:57:02.410Z,11.05
2023-03-06T19:00:06.347Z,7.97
2023-03-06T19:03:09.492Z,6.70
2023-03-06T19:06:14.106Z,8.20
2023-03-06T19:09:16.565Z,5.90
2023-03-06T19:12:19.065Z,10.38
2023-03-06T19:15:21.658Z,24.30
2023-03-06T19:18:25.577Z,10.82
2023-03-06T19:21:29.025Z,9.82
2023-03-06T19:24:31.206Z,7.87
2023-03-06T19:27:34.668Z,18.35
2023-03-06T19:30:40.343Z,8.73
2023-03-06T19:33:43.505Z,6.80
2023-03-06T19:36:45.943Z,5.62
2023-03-06T19:39:48.403Z,6.47
2023-03-06T19:42:52.127Z,7.68
2023-03-06T19:45:55.556Z,7.57
2023-03-06T19:48:59.859Z,8.90
2023-03-06T19:52:02.424Z,7.45
2023-03-06T19:55:05.441Z,8.45
2023-03-06T19:58:09.097Z,7.43
2023-03-06T20:01:13.707Z,8.15
2023-03-06T20:04:17.083Z,8.13
2023-03-06T20:07:20.107Z,10.73
2023-03-06T20:10:22.604Z,7.57
2023-03-06T20:13:25.081Z,10.45
2023-03-06T20:16:29.174Z,12.93
2023-03-06T20:19:32.407Z,8.80
2023-03-06T20:22:34.726Z,8.70
2023-03-06T20:25:37.419Z,10.02
2023-03-06T20:28:41.420Z,14.75
2023-03-06T20:31:43.809Z,18.87
2023-03-06T20:34:46.552Z,14.63
2023-03-06T20:37:49.265Z,11.98
2023-03-06T20:41:03.347Z,11.90
2023-03-06T20:44:07.536Z,18.73
2023-03-06T20:47:09.979Z,19.77
2023-03-06T20:50:14.143Z,17.33
2023-03-06T20:53:16.668Z,15.38
2023-03-06T20:56:21.270Z,13.62
2023-03-06T20:59:23.889Z,11.70
2023-03-06T21:02:26.460Z,17.52
2023-03-06T21:05:28.807Z,13.85
2023-03-06T21:08:31.428Z,15.20
2023-03-06T21:11:34.884Z,11.95
2023-03-06T21:14:37.320Z,15.27
2023-03-06T21:17:39.503Z,12.90
2023-03-06T21:20:42.403Z,15.75
2023-03-06T21:23:45.742Z,12.37
2023-03-06T21:26:48.207Z,12.00
2023-03-06T21:29:50.550Z,10.35
2023-03-06T21:32:53.044Z,11.57
2023-03-06T21:35:55.755Z,10.90
2023-03-06T21:38:57.949Z,13.32
2023-03-06T21:42:00.157Z,12.10
2023-03-06T21:45:04.048Z,11.65
2023-03-06T21:48:06.470Z,11.88
2023-03-06T21:51:13.457Z,10.18
2023-03-06T21:54:15.641Z,12.57
2023-03-06T21:57:17.869Z,11.93
2023-03-06T22:00:20.699Z,11.43
2023-03-06T22:03:23.021Z,13.30
2023-03-06T22:06:26.766Z,11.45
2023-03-06T22:09:29.035Z,11.55
2023-03-06T22:12:34.032Z,10.38
2023-03-06T22:15:36.638Z,13.35
2023-03-06T22:18:39.076Z,11.95
2023-03-06T22:21:41.330Z,10.38
2023-03-06T22:24:43.496Z,13.30
2023-03-06T22:27:45.675Z,11.07
2023-03-06T22:30:47.906Z,11.60
2023-03-06T22:33:52.200Z,12.00
2023-03-06T22:36:54.462Z,10.38
2023-03-06T22:39:56.660Z,11.95
2023-03-06T22:42:58.870Z,12.10
2023-03-06T22:46:05.390Z,11.68
2023-03-06T22:49:07.729Z,10.63
2023-03-06T22:52:09.928Z,11.68
2023-03-06T22:55:12.225Z,12.68
2023-03-06T22:58:14.483Z,10.68
2023-03-06T23:01:19.901Z,11.18
2023-03-06T23:04:22.182Z,12.37
2023-03-06T23:07:24.764Z,12.13
2023-03-06T23:10:26.941Z,11.85
2023-03-06T23:13:29.141Z,12.05
2023-03-06T23:16:32.170Z,13.68
2023-03-06T23:19:34.373Z,12.20
2023-03-06T23:22:36.532Z,11.05
2023-03-06T23:25:38.959Z,12.95
2023-03-06T23:28:41.676Z,11.30
2023-03-06T23:31:43.862Z,13.27
2023-03-06T23:34:48.171Z,14.93
2023-03-06T23:37:50.368Z,10.73
2023-03-06T23:40:52.887Z,11.93
2023-03-06T23:43:55.451Z,10.25
2023-03-06T23:46:57.693Z,7.55
2023-03-06T23:49:59.840Z,8.73
2023-03-06T23:53:02.076Z,10.30
2023-03-06T23:56:06.356Z,11.60
2023-03-06T23:59:09.938Z,11.68
